sensor_id;sensor_type;location;lat;lon;timestamp;P1;durP1;ratioP1;P2;durP2;ratioP2
27145;SDS011;17980;51.744;7.190;2023-04-25T00:01:26;18.53;;;5.43;;
27145;SDS011;17980;51.744;7.190;2023-04-25T00:03:53;15.40;;;6.10;;
27145;SDS011;17980;51.744;7.190;2023-04-25T00:06:30;13.53;;;4.30;;
27145;SDS011;17980;51.744;7.190;2023-04-25T00:08:58;12.73;;;4.90;;
27145;SDS011;17980;51.744;7.190;2023-04-25T00:11:26;10.67;;;4.60;;
27145;SDS011;17980;51.744;7.190;2023-04-25T00:13:57;11.63;;;4.80;;
27145;SDS011;17980;51.744;7.190;2023-04-25T00:16:41;15.67;;;6.20;;
27145;SDS011;17980;51.744;7.190;2023-04-25T00:19:11;10.73;;;5.60;;
27145;SDS011;17980;51.744;7.190;2023-04-25T00:21:40;18.40;;;6.03;;
27145;SDS011;17980;51.744;7.190;2023-04-25T00:24:11;11.93;;;5.60;;
27145;SDS011;17980;51.744;7.190;2023-04-25T00:26:57;20.03;;;5.70;;
27145;SDS011;17980;51.744;7.190;2023-04-25T00:29:25;17.67;;;5.33;;
27145;SDS011;17980;51.744;7.190;2023-04-25T00:32:05;10.43;;;5.40;;
27145;SDS011;17980;51.744;7.190;2023-04-25T00:37:18;9.33;;;5.00;;
27145;SDS011;17980;51.744;7.190;2023-04-25T00:39:45;11.00;;;5.33;;
27145;SDS011;17980;51.744;7.190;2023-04-25T00:42:16;13.67;;;6.10;;
27145;SDS011;17980;51.744;7.190;2023-04-25T00:45:17;8.00;;;4.17;;
27145;SDS011;17980;51.744;7.190;2023-04-25T00:47:54;8.63;;;4.87;;
27145;SDS011;17980;51.744;7.190;2023-04-25T00:50:34;13.17;;;4.77;;
27145;SDS011;17980;51.744;7.190;2023-04-25T00:53:02;26.03;;;14.20;;
27145;SDS011;17980;51.744;7.190;2023-04-25T00:55:42;13.93;;;5.50;;
27145;SDS011;17980;51.744;7.190;2023-04-25T00:58:22;14.13;;;5.17;;
27145;SDS011;17980;51.744;7.190;2023-04-25T01:00:50;9.83;;;5.27;;
27145;SDS011;17980;51.744;7.190;2023-04-25T01:03:28;17.83;;;4.53;;
27145;SDS011;17980;51.744;7.190;2023-04-25T01:05:57;10.63;;;4.37;;
27145;SDS011;17980;51.744;7.190;2023-04-25T01:08:34;10.23;;;4.40;;
27145;SDS011;17980;51.744;7.190;2023-04-25T01:11:07;17.03;;;7.73;;
27145;SDS011;17980;51.744;7.190;2023-04-25T01:13:46;13.67;;;5.83;;
27145;SDS011;17980;51.744;7.190;2023-04-25T01:16:32;11.87;;;6.27;;
27145;SDS011;17980;51.744;7.190;2023-04-25T01:19:09;10.27;;;4.93;;
27145;SDS011;17980;51.744;7.190;2023-04-25T01:21:37;12.53;;;4.90;;
27145;SDS011;17980;51.744;7.190;2023-04-25T01:24:06;10.67;;;3.90;;
27145;SDS011;17980;51.744;7.190;2023-04-25T01:26:46;15.97;;;10.17;;
27145;SDS011;17980;51.744;7.190;2023-04-25T01:29:16;12.53;;;5.40;;
27145;SDS011;17980;51.744;7.190;2023-04-25T01:31:46;9.47;;;4.93;;
27145;SDS011;17980;51.744;7.190;2023-04-25T01:34:13;11.33;;;4.20;;
27145;SDS011;17980;51.744;7.190;2023-04-25T01:36:51;8.47;;;3.93;;
27145;SDS011;17980;51.744;7.190;2023-04-25T01:39:20;8.37;;;4.27;;
27145;SDS011;17980;51.744;7.190;2023-04-25T01:41:58;9.17;;;3.67;;
27145;SDS011;17980;51.744;7.190;2023-04-25T01:47:11;5.33;;;3.03;;
27145;SDS011;17980;51.744;7.190;2023-04-25T01:49:39;8.93;;;4.00;;
27145;SDS011;17980;51.744;7.190;2023-04-25T01:52:06;14.07;;;3.93;;
27145;SDS011;17980;51.744;7.190;2023-04-25T01:54:34;10.17;;;3.97;;
27145;SDS011;17980;51.744;7.190;2023-04-25T01:57:15;6.70;;;3.90;;
27145;SDS011;17980;51.744;7.190;2023-04-25T01:59:50;8.67;;;3.80;;
27145;SDS011;17980;51.744;7.190;2023-04-25T02:02:20;9.10;;;3.50;;
27145;SDS011;17980;51.744;7.190;2023-04-25T02:07:30;8.37;;;3.47;;
27145;SDS011;17980;51.744;7.190;2023-04-25T02:10:01;10.03;;;4.10;;
27145;SDS011;17980;51.744;7.190;2023-04-25T02:12:38;14.20;;;3.70;;
27145;SDS011;17980;51.744;7.190;2023-04-25T02:15:11;8.33;;;4.47;;
27145;SDS011;17980;51.744;7.190;2023-04-25T02:18:05;6.90;;;3.17;;
27145;SDS011;17980;51.744;7.190;2023-04-25T02:20:33;7.23;;;3.03;;
27145;SDS011;17980;51.744;7.190;2023-04-25T02:23:02;8.83;;;3.47;;
27145;SDS011;17980;51.744;7.190;2023-04-25T02:25:48;10.03;;;3.57;;
27145;SDS011;17980;51.744;7.190;2023-04-25T02:28:16;12.07;;;3.70;;
27145;SDS011;17980;51.744;7.190;2023-04-25T02:30:55;9.40;;;3.87;;
27145;SDS011;17980;51.744;7.190;2023-04-25T02:33:23;10.17;;;4.47;;
27145;SDS011;17980;51.744;7.190;2023-04-25T02:35:51;9.63;;;4.00;;
27145;SDS011;17980;51.744;7.190;2023-04-25T02:38:28;11.37;;;4.07;;
27145;SDS011;17980;51.744;7.190;2023-04-25T02:40:56;9.80;;;3.63;;
27145;SDS011;17980;51.744;7.190;2023-04-25T02:43:23;10.87;;;4.03;;
27145;SDS011;17980;51.744;7.190;2023-04-25T02:45:51;8.97;;;3.97;;
27145;SDS011;17980;51.744;7.190;2023-04-25T02:48:30;12.97;;;3.67;;
27145;SDS011;17980;51.744;7.190;2023-04-25T02:51:05;13.50;;;3.63;;
27145;SDS011;17980;51.744;7.190;2023-04-25T02:53:33;9.63;;;3.27;;
27145;SDS011;17980;51.744;7.190;2023-04-25T02:56:03;14.60;;;2.73;;
27145;SDS011;17980;51.744;7.190;2023-04-25T02:58:46;10.97;;;2.83;;
27145;SDS011;17980;51.744;7.190;2023-04-25T03:01:17;10.03;;;2.93;;
27145;SDS011;17980;51.744;7.190;2023-04-25T03:04:02;9.00;;;3.33;;
27145;SDS011;17980;51.744;7.190;2023-04-25T03:06:37;7.47;;;3.37;;
27145;SDS011;17980;51.744;7.190;2023-04-25T03:09:18;12.37;;;3.70;;
27145;SDS011;17980;51.744;7.190;2023-04-25T03:11:50;15.37;;;7.67;;
27145;SDS011;17980;51.744;7.190;2023-04-25T03:14:18;15.17;;;4.67;;
27145;SDS011;17980;51.744;7.190;2023-04-25T03:16:50;17.73;;;6.97;;
27145;SDS011;17980;51.744;7.190;2023-04-25T03:19:22;30.60;;;16.60;;
27145;SDS011;17980;51.744;7.190;2023-04-25T03:22:02;14.17;;;7.83;;
27145;SDS011;17980;51.744;7.190;2023-04-25T03:24:32;19.23;;;6.03;;
27145;SDS011;17980;51.744;7.190;2023-04-25T03:27:09;16.70;;;2.47;;
27145;SDS011;17980;51.744;7.190;2023-04-25T03:29:39;12.83;;;3.93;;
27145;SDS011;17980;51.744;7.190;2023-04-25T03:32:25;19.23;;;4.63;;
27145;SDS011;17980;51.744;7.190;2023-04-25T03:34:52;16.60;;;3.57;;
27145;SDS011;17980;51.744;7.190;2023-04-25T03:37:29;17.93;;;3.73;;
27145;SDS011;17980;51.744;7.190;2023-04-25T03:39:58;16.10;;;3.90;;
27145;SDS011;17980;51.744;7.190;2023-04-25T03:42:27;17.50;;;3.80;;
27145;SDS011;17980;51.744;7.190;2023-04-25T03:44:55;16.17;;;3.50;;
27145;SDS011;17980;51.744;7.190;2023-04-25T03:47:32;12.27;;;2.90;;
27145;SDS011;17980;51.744;7.190;2023-04-25T03:50:01;11.37;;;3.33;;
27145;SDS011;17980;51.744;7.190;2023-04-25T03:52:40;15.90;;;4.00;;
27145;SDS011;17980;51.744;7.190;2023-04-25T03:55:20;12.33;;;3.93;;
27145;SDS011;17980;51.744;7.190;2023-04-25T03:57:48;10.73;;;3.10;;
27145;SDS011;17980;51.744;7.190;2023-04-25T04:00:25;16.70;;;3.57;;
27145;SDS011;17980;51.744;7.190;2023-04-25T04:02:56;12.17;;;2.40;;
27145;SDS011;17980;51.744;7.190;2023-04-25T04:05:27;11.73;;;3.20;;
27145;SDS011;17980;51.744;7.190;2023-04-25T04:08:07;13.93;;;3.30;;
27145;SDS011;17980;51.744;7.190;2023-04-25T04:10:35;11.70;;;2.83;;
27145;SDS011;17980;51.744;7.190;2023-04-25T04:16:06;13.23;;;3.10;;
27145;SDS011;17980;51.744;7.190;2023-04-25T04:18:36;11.53;;;2.90;;
27145;SDS011;17980;51.744;7.190;2023-04-25T04:21:06;6.50;;;2.70;;
27145;SDS011;17980;51.744;7.190;2023-04-25T04:23:47;14.00;;;2.33;;
27145;SDS011;17980;51.744;7.190;2023-04-25T04:26:14;15.33;;;2.83;;
27145;SDS011;17980;51.744;7.190;2023-04-25T04:28:54;15.13;;;3.07;;
27145;SDS011;17980;51.744;7.190;2023-04-25T04:31:21;13.70;;;2.53;;
27145;SDS011;17980;51.744;7.190;2023-04-25T04:33:51;14.97;;;3.03;;
27145;SDS011;17980;51.744;7.190;2023-04-25T04:36:28;12.00;;;3.17;;
27145;SDS011;17980;51.744;7.190;2023-04-25T04:38:55;9.73;;;2.90;;
27145;SDS011;17980;51.744;7.190;2023-04-25T04:44:00;11.07;;;3.10;;
27145;SDS011;17980;51.744;7.190;2023-04-25T04:46:41;12.07;;;5.17;;
27145;SDS011;17980;51.744;7.190;2023-04-25T04:49:28;18.13;;;4.50;;
27145;SDS011;17980;51.744;7.190;2023-04-25T04:51:59;8.97;;;3.53;;
27145;SDS011;17980;51.744;7.190;2023-04-25T04:57:05;12.33;;;3.20;;
27145;SDS011;17980;51.744;7.190;2023-04-25T04:59:36;13.67;;;5.43;;
27145;SDS011;17980;51.744;7.190;2023-04-25T05:02:20;36.87;;;27.83;;
27145;SDS011;17980;51.744;7.190;2023-04-25T05:04:50;37.77;;;31.00;;
27145;SDS011;17980;51.744;7.190;2023-04-25T05:07:27;16.77;;;10.20;;
27145;SDS011;17980;51.744;7.190;2023-04-25T05:09:54;20.03;;;11.90;;
27145;SDS011;17980;51.744;7.190;2023-04-25T05:15:04;83.23;;;66.30;;
27145;SDS011;17980;51.744;7.190;2023-04-25T05:17:34;37.03;;;26.90;;
27145;SDS011;17980;51.744;7.190;2023-04-25T05:20:13;19.70;;;11.50;;
27145;SDS011;17980;51.744;7.190;2023-04-25T05:22:41;20.33;;;11.43;;
27145;SDS011;17980;51.744;7.190;2023-04-25T05:25:08;9.07;;;3.93;;
27145;SDS011;17980;51.744;7.190;2023-04-25T05:27:49;13.53;;;4.67;;
27145;SDS011;17980;51.744;7.190;2023-04-25T05:32:56;16.43;;;4.43;;
27145;SDS011;17980;51.744;7.190;2023-04-25T05:35:23;10.27;;;5.00;;
27145;SDS011;17980;51.744;7.190;2023-04-25T05:38:02;16.30;;;4.00;;
27145;SDS011;17980;51.744;7.190;2023-04-25T05:40:30;13.23;;;6.30;;
27145;SDS011;17980;51.744;7.190;2023-04-25T05:43:11;15.37;;;5.20;;
27145;SDS011;17980;51.744;7.190;2023-04-25T05:45:48;14.90;;;3.60;;
27145;SDS011;17980;51.744;7.190;2023-04-25T05:48:28;15.63;;;7.93;;
27145;SDS011;17980;51.744;7.190;2023-04-25T05:50:57;16.43;;;8.37;;
27145;SDS011;17980;51.744;7.190;2023-04-25T05:53:35;13.47;;;4.50;;
27145;SDS011;17980;51.744;7.190;2023-04-25T05:56:10;15.07;;;4.90;;
27145;SDS011;17980;51.744;7.190;2023-04-25T05:58:50;9.13;;;4.10;;
27145;SDS011;17980;51.744;7.190;2023-04-25T06:01:21;15.37;;;4.30;;
27145;SDS011;17980;51.744;7.190;2023-04-25T06:04:08;11.23;;;4.53;;
27145;SDS011;17980;51.744;7.190;2023-04-25T06:06:47;11.07;;;4.10;;
27145;SDS011;17980;51.744;7.190;2023-04-25T06:09:18;14.37;;;3.97;;
27145;SDS011;17980;51.744;7.190;2023-04-25T06:11:58;14.80;;;3.10;;
27145;SDS011;17980;51.744;7.190;2023-04-25T06:14:30;10.23;;;3.37;;
27145;SDS011;17980;51.744;7.190;2023-04-25T06:17:14;17.57;;;4.43;;
27145;SDS011;17980;51.744;7.190;2023-04-25T06:19:45;10.30;;;3.27;;
27145;SDS011;17980;51.744;7.190;2023-04-25T06:22:14;21.93;;;16.17;;
27145;SDS011;17980;51.744;7.190;2023-04-25T06:24:44;10.67;;;5.93;;
27145;SDS011;17980;51.744;7.190;2023-04-25T06:27:26;12.57;;;3.80;;
27145;SDS011;17980;51.744;7.190;2023-04-25T06:29:55;12.70;;;3.57;;
27145;SDS011;17980;51.744;7.190;2023-04-25T06:32:32;10.23;;;3.63;;
27145;SDS011;17980;51.744;7.190;2023-04-25T06:35:00;33.13;;;14.60;;
27145;SDS011;17980;51.744;7.190;2023-04-25T06:37:36;14.47;;;4.80;;
27145;SDS011;17980;51.744;7.190;2023-04-25T06:40:05;9.97;;;3.03;;
27145;SDS011;17980;51.744;7.190;2023-04-25T06:42:34;19.10;;;3.30;;
27145;SDS011;17980;51.744;7.190;2023-04-25T06:45:01;11.70;;;2.77;;
27145;SDS011;17980;51.744;7.190;2023-04-25T06:47:38;16.57;;;3.23;;
27145;SDS011;17980;51.744;7.190;2023-04-25T06:50:06;10.80;;;3.90;;
27145;SDS011;17980;51.744;7.190;2023-04-25T06:52:35;10.40;;;3.23;;
27145;SDS011;17980;51.744;7.190;2023-04-25T06:55:02;19.13;;;3.33;;
27145;SDS011;17980;51.744;7.190;2023-04-25T06:57:39;32.43;;;23.40;;
27145;SDS011;17980;51.744;7.190;2023-04-25T07:00:17;28.20;;;12.70;;
27145;SDS011;17980;51.744;7.190;2023-04-25T07:02:45;52.23;;;31.30;;
27145;SDS011;17980;51.744;7.190;2023-04-25T07:05:13;29.57;;;9.17;;
27145;SDS011;17980;51.744;7.190;2023-04-25T07:07:50;31.80;;;15.00;;
27145;SDS011;17980;51.744;7.190;2023-04-25T07:10:17;45.90;;;25.23;;
27145;SDS011;17980;51.744;7.190;2023-04-25T07:12:44;58.93;;;33.77;;
27145;SDS011;17980;51.744;7.190;2023-04-25T07:15:12;51.10;;;36.13;;
27145;SDS011;17980;51.744;7.190;2023-04-25T07:17:49;200.57;;;105.40;;
27145;SDS011;17980;51.744;7.190;2023-04-25T07:20:16;115.77;;;61.70;;
27145;SDS011;17980;51.744;7.190;2023-04-25T07:22:43;45.20;;;20.30;;
27145;SDS011;17980;51.744;7.190;2023-04-25T07:25:10;76.57;;;42.77;;
27145;SDS011;17980;51.744;7.190;2023-04-25T07:27:47;35.73;;;24.27;;
27145;SDS011;17980;51.744;7.190;2023-04-25T07:30:15;24.00;;;11.53;;
27145;SDS011;17980;51.744;7.190;2023-04-25T07:32:42;10.30;;;5.23;;
27145;SDS011;17980;51.744;7.190;2023-04-25T07:35:09;9.67;;;2.40;;
27145;SDS011;17980;51.744;7.190;2023-04-25T07:37:52;8.87;;;2.43;;
27145;SDS011;17980;51.744;7.190;2023-04-25T07:40:20;12.40;;;4.20;;
27145;SDS011;17980;51.744;7.190;2023-04-25T07:42:48;9.53;;;2.07;;
27145;SDS011;17980;51.744;7.190;2023-04-25T07:45:15;7.97;;;1.80;;
27145;SDS011;17980;51.744;7.190;2023-04-25T07:48:02;10.57;;;2.20;;
27145;SDS011;17980;51.744;7.190;2023-04-25T07:50:30;12.73;;;2.37;;
27145;SDS011;17980;51.744;7.190;2023-04-25T07:52:57;9.97;;;2.27;;
27145;SDS011;17980;51.744;7.190;2023-04-25T07:55:25;11.73;;;2.97;;
27145;SDS011;17980;51.744;7.190;2023-04-25T07:58:02;10.63;;;1.77;;
27145;SDS011;17980;51.744;7.190;2023-04-25T08:00:29;7.80;;;1.43;;
27145;SDS011;17980;51.744;7.190;2023-04-25T08:02:57;6.20;;;1.10;;
27145;SDS011;17980;51.744;7.190;2023-04-25T08:05:24;7.10;;;1.33;;
27145;SDS011;17980;51.744;7.190;2023-04-25T08:08:01;7.83;;;1.23;;
27145;SDS011;17980;51.744;7.190;2023-04-25T08:10:29;11.17;;;1.40;;
27145;SDS011;17980;51.744;7.190;2023-04-25T08:13:11;9.57;;;1.53;;
27145;SDS011;17980;51.744;7.190;2023-04-25T08:15:39;6.53;;;1.50;;
27145;SDS011;17980;51.744;7.190;2023-04-25T08:18:16;3.70;;;1.13;;
27145;SDS011;17980;51.744;7.190;2023-04-25T08:20:43;6.80;;;1.20;;
27145;SDS011;17980;51.744;7.190;2023-04-25T08:23:10;9.07;;;1.60;;
27145;SDS011;17980;51.744;7.190;2023-04-25T08:25:39;8.23;;;1.40;;
27145;SDS011;17980;51.744;7.190;2023-04-25T08:28:21;6.77;;;1.20;;
27145;SDS011;17980;51.744;7.190;2023-04-25T08:30:49;7.40;;;1.40;;
27145;SDS011;17980;51.744;7.190;2023-04-25T08:33:16;9.43;;;1.67;;
27145;SDS011;17980;51.744;7.190;2023-04-25T08:35:44;7.43;;;2.03;;
27145;SDS011;17980;51.744;7.190;2023-04-25T08:38:21;10.20;;;1.83;;
27145;SDS011;17980;51.744;7.190;2023-04-25T08:40:49;7.43;;;1.33;;
27145;SDS011;17980;51.744;7.190;2023-04-25T08:43:26;12.00;;;1.43;;
27145;SDS011;17980;51.744;7.190;2023-04-25T08:46:05;6.40;;;1.20;;
27145;SDS011;17980;51.744;7.190;2023-04-25T08:51:16;5.53;;;1.13;;
27145;SDS011;17980;51.744;7.190;2023-04-25T08:53:49;11.00;;;1.20;;
27145;SDS011;17980;51.744;7.190;2023-04-25T08:59:03;5.60;;;1.07;;
27145;SDS011;17980;51.744;7.190;2023-04-25T09:01:32;5.17;;;1.00;;
27145;SDS011;17980;51.744;7.190;2023-04-25T09:04:12;8.67;;;2.20;;
27145;SDS011;17980;51.744;7.190;2023-04-25T09:06:41;5.10;;;1.10;;
27145;SDS011;17980;51.744;7.190;2023-04-25T09:09:18;4.07;;;1.10;;
27145;SDS011;17980;51.744;7.190;2023-04-25T09:11:45;6.70;;;0.90;;
27145;SDS011;17980;51.744;7.190;2023-04-25T09:14:24;4.27;;;1.00;;
27145;SDS011;17980;51.744;7.190;2023-04-25T09:17:02;5.20;;;0.80;;
27145;SDS011;17980;51.744;7.190;2023-04-25T09:19:31;5.40;;;0.83;;
27145;SDS011;17980;51.744;7.190;2023-04-25T09:22:01;6.90;;;1.00;;
27145;SDS011;17980;51.744;7.190;2023-04-25T09:24:31;6.83;;;1.10;;
27145;SDS011;17980;51.744;7.190;2023-04-25T09:27:11;4.23;;;0.70;;
27145;SDS011;17980;51.744;7.190;2023-04-25T09:29:41;3.03;;;0.77;;
27145;SDS011;17980;51.744;7.190;2023-04-25T09:32:13;6.07;;;1.00;;
27145;SDS011;17980;51.744;7.190;2023-04-25T09:34:43;4.80;;;0.90;;
27145;SDS011;17980;51.744;7.190;2023-04-25T09:37:20;5.17;;;1.93;;
27145;SDS011;17980;51.744;7.190;2023-04-25T09:39:49;3.50;;;1.07;;
27145;SDS011;17980;51.744;7.190;2023-04-25T09:42:21;44.60;;;2.93;;
27145;SDS011;17980;51.744;7.190;2023-04-25T09:44:50;5.07;;;1.07;;
27145;SDS011;17980;51.744;7.190;2023-04-25T09:47:28;5.03;;;1.00;;
27145;SDS011;17980;51.744;7.190;2023-04-25T09:49:55;3.20;;;0.90;;
27145;SDS011;17980;51.744;7.190;2023-04-25T09:52:32;7.47;;;1.17;;
27145;SDS011;17980;51.744;7.190;2023-04-25T09:54:59;4.10;;;1.00;;
27145;SDS011;17980;51.744;7.190;2023-04-25T09:57:36;6.70;;;0.97;;
27145;SDS011;17980;51.744;7.190;2023-04-25T10:00:07;4.50;;;0.90;;
27145;SDS011;17980;51.744;7.190;2023-04-25T10:02:38;6.93;;;0.90;;
27145;SDS011;17980;51.744;7.190;2023-04-25T10:05:17;6.13;;;1.03;;
27145;SDS011;17980;51.744;7.190;2023-04-25T10:07:45;7.43;;;1.00;;
27145;SDS011;17980;51.744;7.190;2023-04-25T10:10:22;7.17;;;1.03;;
27145;SDS011;17980;51.744;7.190;2023-04-25T10:12:51;5.87;;;0.90;;
27145;SDS011;17980;51.744;7.190;2023-04-25T10:15:19;2.07;;;0.67;;
27145;SDS011;17980;51.744;7.190;2023-04-25T10:17:56;5.27;;;1.07;;
27145;SDS011;17980;51.744;7.190;2023-04-25T10:20:24;5.17;;;0.80;;
27145;SDS011;17980;51.744;7.190;2023-04-25T10:22:52;6.10;;;0.93;;
27145;SDS011;17980;51.744;7.190;2023-04-25T10:25:30;5.27;;;0.90;;
27145;SDS011;17980;51.744;7.190;2023-04-25T10:27:58;7.87;;;1.20;;
27145;SDS011;17980;51.744;7.190;2023-04-25T10:30:35;4.43;;;0.90;;
27145;SDS011;17980;51.744;7.190;2023-04-25T10:33:03;12.67;;;1.67;;
27145;SDS011;17980;51.744;7.190;2023-04-25T10:35:48;5.83;;;0.90;;
27145;SDS011;17980;51.744;7.190;2023-04-25T10:38:16;4.20;;;0.80;;
27145;SDS011;17980;51.744;7.190;2023-04-25T10:41:02;4.30;;;1.03;;
27145;SDS011;17980;51.744;7.190;2023-04-25T10:43:35;5.73;;;0.93;;
27145;SDS011;17980;51.744;7.190;2023-04-25T10:46:13;4.43;;;0.93;;
27145;SDS011;17980;51.744;7.190;2023-04-25T10:48:45;3.57;;;1.03;;
27145;SDS011;17980;51.744;7.190;2023-04-25T10:51:18;4.80;;;1.23;;
27145;SDS011;17980;51.744;7.190;2023-04-25T10:53:47;7.10;;;0.70;;
27145;SDS011;17980;51.744;7.190;2023-04-25T10:56:33;4.17;;;0.70;;
27145;SDS011;17980;51.744;7.190;2023-04-25T10:59:04;3.87;;;0.60;;
27145;SDS011;17980;51.744;7.190;2023-04-25T11:01:42;3.53;;;0.70;;
27145;SDS011;17980;51.744;7.190;2023-04-25T11:04:20;4.77;;;0.57;;
27145;SDS011;17980;51.744;7.190;2023-04-25T11:07:02;3.27;;;0.60;;
27145;SDS011;17980;51.744;7.190;2023-04-25T11:09:34;2.90;;;0.70;;
27145;SDS011;17980;51.744;7.190;2023-04-25T11:12:02;6.43;;;1.20;;
27145;SDS011;17980;51.744;7.190;2023-04-25T11:17:07;3.60;;;0.80;;
27145;SDS011;17980;51.744;7.190;2023-04-25T11:19:34;1.57;;;0.50;;
27145;SDS011;17980;51.744;7.190;2023-04-25T11:22:02;1.63;;;0.50;;
27145;SDS011;17980;51.744;7.190;2023-04-25T11:24:39;3.50;;;0.77;;
27145;SDS011;17980;51.744;7.190;2023-04-25T11:27:07;2.13;;;0.60;;
27145;SDS011;17980;51.744;7.190;2023-04-25T11:29:44;2.20;;;0.60;;
27145;SDS011;17980;51.744;7.190;2023-04-25T11:32:14;2.57;;;0.40;;
27145;SDS011;17980;51.744;7.190;2023-04-25T11:34:42;4.80;;;0.50;;
27145;SDS011;17980;51.744;7.190;2023-04-25T11:37:20;7.47;;;0.60;;
27145;SDS011;17980;51.744;7.190;2023-04-25T11:39:47;2.43;;;0.53;;
27145;SDS011;17980;51.744;7.190;2023-04-25T11:42:15;2.20;;;0.70;;
27145;SDS011;17980;51.744;7.190;2023-04-25T11:44:42;3.47;;;0.50;;
27145;SDS011;17980;51.744;7.190;2023-04-25T11:47:20;3.93;;;0.77;;
27145;SDS011;17980;51.744;7.190;2023-04-25T11:49:54;5.00;;;0.40;;
27145;SDS011;17980;51.744;7.190;2023-04-25T11:52:37;2.60;;;0.97;;
27145;SDS011;17980;51.744;7.190;2023-04-25T11:55:08;2.17;;;0.63;;
27145;SDS011;17980;51.744;7.190;2023-04-25T11:57:46;1.50;;;0.53;;
27145;SDS011;17980;51.744;7.190;2023-04-25T12:00:16;6.50;;;0.90;;
27145;SDS011;17980;51.744;7.190;2023-04-25T12:02:45;1.77;;;0.40;;
27145;SDS011;17980;51.744;7.190;2023-04-25T12:05:32;0.87;;;0.33;;
27145;SDS011;17980;51.744;7.190;2023-04-25T12:10:48;1.33;;;0.40;;
27145;SDS011;17980;51.744;7.190;2023-04-25T12:13:19;2.47;;;0.60;;
27145;SDS011;17980;51.744;7.190;2023-04-25T12:15:48;1.27;;;0.30;;
27145;SDS011;17980;51.744;7.190;2023-04-25T12:18:25;1.17;;;0.60;;
27145;SDS011;17980;51.744;7.190;2023-04-25T12:20:53;2.60;;;0.50;;
27145;SDS011;17980;51.744;7.190;2023-04-25T12:23:25;2.50;;;0.50;;
27145;SDS011;17980;51.744;7.190;2023-04-25T12:25:54;1.40;;;0.40;;
27145;SDS011;17980;51.744;7.190;2023-04-25T12:28:31;0.90;;;0.30;;
27145;SDS011;17980;51.744;7.190;2023-04-25T12:31:00;3.07;;;0.60;;
27145;SDS011;17980;51.744;7.190;2023-04-25T12:33:30;0.73;;;0.20;;
27145;SDS011;17980;51.744;7.190;2023-04-25T12:36:08;12.63;;;10.67;;
27145;SDS011;17980;51.744;7.190;2023-04-25T12:38:37;2.00;;;0.70;;
27145;SDS011;17980;51.744;7.190;2023-04-25T12:41:14;2.87;;;0.43;;
27145;SDS011;17980;51.744;7.190;2023-04-25T12:46:17;2.03;;;0.47;;
27145;SDS011;17980;51.744;7.190;2023-04-25T12:48:44;1.63;;;0.60;;
27145;SDS011;17980;51.744;7.190;2023-04-25T12:51:12;2.27;;;0.53;;
27145;SDS011;17980;51.744;7.190;2023-04-25T12:53:39;1.70;;;0.50;;
27145;SDS011;17980;51.744;7.190;2023-04-25T12:56:07;1.53;;;0.40;;
27145;SDS011;17980;51.744;7.190;2023-04-25T12:58:44;2.70;;;0.33;;
27145;SDS011;17980;51.744;7.190;2023-04-25T13:01:11;2.53;;;0.40;;
27145;SDS011;17980;51.744;7.190;2023-04-25T13:03:39;1.73;;;0.40;;
27145;SDS011;17980;51.744;7.190;2023-04-25T13:06:16;2.70;;;0.30;;
27145;SDS011;17980;51.744;7.190;2023-04-25T13:08:45;0.40;;;0.30;;
27145;SDS011;17980;51.744;7.190;2023-04-25T13:11:12;0.90;;;0.40;;
27145;SDS011;17980;51.744;7.190;2023-04-25T13:13:41;1.70;;;0.40;;
27145;SDS011;17980;51.744;7.190;2023-04-25T13:16:18;2.67;;;1.47;;
27145;SDS011;17980;51.744;7.190;2023-04-25T13:18:46;3.50;;;1.60;;
27145;SDS011;17980;51.744;7.190;2023-04-25T13:21:13;2.13;;;1.43;;
27145;SDS011;17980;51.744;7.190;2023-04-25T13:23:41;1.60;;;0.80;;
27145;SDS011;17980;51.744;7.190;2023-04-25T13:28:46;3.53;;;1.40;;
27145;SDS011;17980;51.744;7.190;2023-04-25T13:33:49;2.30;;;0.90;;
27145;SDS011;17980;51.744;7.190;2023-04-25T13:36:16;4.90;;;0.80;;
27145;SDS011;17980;51.744;7.190;2023-04-25T13:38:53;5.17;;;2.30;;
27145;SDS011;17980;51.744;7.190;2023-04-25T13:41:21;3.07;;;0.90;;
27145;SDS011;17980;51.744;7.190;2023-04-25T13:43:48;1.80;;;0.80;;
27145;SDS011;17980;51.744;7.190;2023-04-25T13:46:31;6.77;;;0.80;;
27145;SDS011;17980;51.744;7.190;2023-04-25T13:48:58;5.17;;;0.97;;
27145;SDS011;17980;51.744;7.190;2023-04-25T13:51:26;1.93;;;0.57;;
27145;SDS011;17980;51.744;7.190;2023-04-25T13:53:54;0.67;;;0.37;;
27145;SDS011;17980;51.744;7.190;2023-04-25T13:56:30;1.70;;;0.70;;
27145;SDS011;17980;51.744;7.190;2023-04-25T13:58:58;1.53;;;0.60;;
27145;SDS011;17980;51.744;7.190;2023-04-25T14:01:35;1.63;;;0.57;;
27145;SDS011;17980;51.744;7.190;2023-04-25T14:04:02;1.60;;;0.50;;
27145;SDS011;17980;51.744;7.190;2023-04-25T14:06:39;2.83;;;0.60;;
27145;SDS011;17980;51.744;7.190;2023-04-25T14:09:07;1.43;;;0.40;;
27145;SDS011;17980;51.744;7.190;2023-04-25T14:11:35;3.03;;;0.50;;
27145;SDS011;17980;51.744;7.190;2023-04-25T14:14:03;2.73;;;0.60;;
27145;SDS011;17980;51.744;7.190;2023-04-25T14:16:40;3.00;;;0.70;;
27145;SDS011;17980;51.744;7.190;2023-04-25T14:19:07;4.13;;;0.80;;
27145;SDS011;17980;51.744;7.190;2023-04-25T14:21:34;1.77;;;0.47;;
27145;SDS011;17980;51.744;7.190;2023-04-25T14:24:01;3.40;;;0.87;;
27145;SDS011;17980;51.744;7.190;2023-04-25T14:26:38;4.27;;;0.70;;
27145;SDS011;17980;51.744;7.190;2023-04-25T14:29:07;2.43;;;0.70;;
27145;SDS011;17980;51.744;7.190;2023-04-25T14:31:37;5.13;;;1.10;;
27145;SDS011;17980;51.744;7.190;2023-04-25T14:34:15;4.00;;;0.60;;
27145;SDS011;17980;51.744;7.190;2023-04-25T14:36:42;3.20;;;0.97;;
27145;SDS011;17980;51.744;7.190;2023-04-25T14:39:19;3.60;;;0.70;;
27145;SDS011;17980;51.744;7.190;2023-04-25T14:41:47;2.63;;;0.60;;
27145;SDS011;17980;51.744;7.190;2023-04-25T14:44:14;3.90;;;1.03;;
27145;SDS011;17980;51.744;7.190;2023-04-25T14:46:41;3.10;;;0.50;;
27145;SDS011;17980;51.744;7.190;2023-04-25T14:49:18;4.40;;;0.70;;
27145;SDS011;17980;51.744;7.190;2023-04-25T14:51:46;3.50;;;0.50;;
27145;SDS011;17980;51.744;7.190;2023-04-25T14:54:13;2.23;;;0.60;;
27145;SDS011;17980;51.744;7.190;2023-04-25T14:56:41;3.13;;;0.60;;
27145;SDS011;17980;51.744;7.190;2023-04-25T14:59:18;1.70;;;0.43;;
27145;SDS011;17980;51.744;7.190;2023-04-25T15:01:46;3.83;;;0.50;;
27145;SDS011;17980;51.744;7.190;2023-04-25T15:04:23;3.30;;;0.70;;
27145;SDS011;17980;51.744;7.190;2023-04-25T15:06:50;1.60;;;0.50;;
27145;SDS011;17980;51.744;7.190;2023-04-25T15:09:27;1.17;;;0.60;;
27145;SDS011;17980;51.744;7.190;2023-04-25T15:11:54;3.37;;;0.63;;
27145;SDS011;17980;51.744;7.190;2023-04-25T15:14:31;3.67;;;0.70;;
27145;SDS011;17980;51.744;7.190;2023-04-25T15:16:59;1.80;;;0.40;;
27145;SDS011;17980;51.744;7.190;2023-04-25T15:19:36;4.30;;;0.47;;
27145;SDS011;17980;51.744;7.190;2023-04-25T15:22:03;0.93;;;0.33;;
27145;SDS011;17980;51.744;7.190;2023-04-25T15:24:40;3.00;;;0.70;;
27145;SDS011;17980;51.744;7.190;2023-04-25T15:27:08;1.67;;;0.70;;
27145;SDS011;17980;51.744;7.190;2023-04-25T15:29:45;6.67;;;0.80;;
27145;SDS011;17980;51.744;7.190;2023-04-25T15:32:12;1.13;;;0.50;;
27145;SDS011;17980;51.744;7.190;2023-04-25T15:34:49;3.00;;;1.97;;
27145;SDS011;17980;51.744;7.190;2023-04-25T15:37:16;3.93;;;1.60;;
27145;SDS011;17980;51.744;7.190;2023-04-25T15:39:55;2.07;;;0.73;;
27145;SDS011;17980;51.744;7.190;2023-04-25T15:42:26;1.23;;;0.60;;
27145;SDS011;17980;51.744;7.190;2023-04-25T15:45:03;1.70;;;0.67;;
27145;SDS011;17980;51.744;7.190;2023-04-25T15:47:32;4.37;;;0.73;;
27145;SDS011;17980;51.744;7.190;2023-04-25T15:50:09;4.23;;;0.67;;
27145;SDS011;17980;51.744;7.190;2023-04-25T15:52:37;2.10;;;0.70;;